Time;durP1;ratioP1;P1;durP2;ratioP2;P2;SDS_P1;SDS_P2;PMS_P1;PMS_P2;Temp;Humidity;BMP_temperature;BMP_pressure;BME280_temperature;BME280_humidity;BME280_pressure;Samples;Min_cycle;Max_cycle;Signal;HPM_P1;HPM_P2
2021/09/25 00:00:00;;;;;;;2.88;1.60;;;8.40;99.90;;;;;;5029650;28;20056;-66
2021/09/25 00:02:26;;;;;;;2.03;1.67;;;8.40;99.90;;;;;;5029546;28;20033;-66
2021/09/25 00:04:51;;;;;;;2.15;1.58;;;8.50;99.90;;;;;;5029644;28;20029;-66
2021/09/25 00:07:17;;;;;;;2.35;1.73;;;8.50;99.90;;;;;;5029577;28;20037;-66
2021/09/25 00:09:43;;;;;;;1.73;1.45;;;8.50;99.90;;;;;;5029236;28;20102;-66
2021/09/25 00:12:11;;;;;;;4.82;1.67;;;8.50;99.90;;;;;;5018800;28;20102;-66
2021/09/25 00:14:39;;;;;;;4.05;2.60;;;8.50;99.90;;;;;;5025357;28;20029;-66
2021/09/25 00:17:10;;;;;;;4.10;2.10;;;8.50;99.90;;;;;;5029174;28;20036;-66
2021/09/25 00:19:37;;;;;;;5.82;2.00;;;8.50;99.90;;;;;;5029305;28;20050;-66
2021/09/25 00:22:04;;;;;;;8.32;2.05;;;8.50;99.90;;;;;;5029024;28;20096;-66
2021/09/25 00:24:29;;;;;;;2.92;1.75;;;8.60;99.90;;;;;;5029519;28;20037;-66
2021/09/25 00:26:55;;;;;;;5.80;2.17;;;8.50;99.90;;;;;;5029041;28;20048;-66
2021/09/25 00:29:22;;;;;;;3.28;1.60;;;8.50;99.90;;;;;;5029399;28;20021;-66
2021/09/25 00:31:48;;;;;;;3.70;1.65;;;8.50;99.90;;;;;;5028832;28;20548;-66
2021/09/25 00:34:14;;;;;;;2.53;1.80;;;8.60;99.90;;;;;;5029009;28;20104;-66
2021/09/25 00:36:40;;;;;;;3.40;1.45;;;8.60;99.90;;;;;;5028836;28;20025;-66
2021/09/25 00:39:06;;;;;;;3.70;1.65;;;8.60;99.90;;;;;;5029287;28;20025;-66
2021/09/25 00:41:32;;;;;;;3.85;1.60;;;8.60;99.90;;;;;;5028721;28;20030;-66
2021/09/25 00:43:58;;;;;;;3.00;1.80;;;8.60;99.90;;;;;;5029066;28;20021;-66
2021/09/25 00:46:24;;;;;;;3.50;1.95;;;8.70;99.90;;;;;;5028792;28;20073;-66
2021/09/25 00:48:50;;;;;;;5.68;2.17;;;8.70;99.90;;;;;;5028771;28;20562;-66
2021/09/25 00:51:16;;;;;;;4.85;1.98;;;8.70;99.90;;;;;;5028711;28;20056;-66
2021/09/25 00:53:43;;;;;;;5.30;2.45;;;8.70;99.90;;;;;;5028996;28;20381;-66
2021/09/25 00:56:10;;;;;;;7.70;2.22;;;8.70;99.90;;;;;;5028426;28;20049;-66
2021/09/25 00:58:38;;;;;;;6.47;2.30;;;8.70;99.90;;;;;;5028824;28;20468;-66
2021/09/25 01:01:04;;;;;;;5.60;2.05;;;8.70;99.90;;;;;;5028839;28;20033;-66
2021/09/25 01:03:30;;;;;;;5.55;2.00;;;8.70;99.90;;;;;;5028939;28;20065;-66
2021/09/25 01:05:55;;;;;;;3.50;2.15;;;8.70;99.90;;;;;;5028464;28;20061;-66
2021/09/25 01:08:24;;;;;;;5.38;2.25;;;8.70;99.90;;;;;;5028574;28;20110;-66
2021/09/25 01:10:52;;;;;;;3.85;2.50;;;8.70;99.90;;;;;;5028384;28;20029;-66
2021/09/25 01:13:18;;;;;;;7.30;2.40;;;8.80;99.90;;;;;;5028738;28;20030;-66
2021/09/25 01:15:44;;;;;;;3.22;1.85;;;8.80;99.90;;;;;;5019858;28;20022;-65
2021/09/25 01:18:10;;;;;;;3.42;2.03;;;8.80;99.90;;;;;;5022073;28;20034;-65
2021/09/25 01:20:36;;;;;;;6.05;1.90;;;8.80;99.90;;;;;;5028120;28;20029;-65
2021/09/25 01:23:02;;;;;;;3.75;2.00;;;8.90;99.90;;;;;;5026489;28;20057;-66
2021/09/25 01:25:28;;;;;;;4.13;2.00;;;8.90;99.90;;;;;;5028302;28;20086;-66
2021/09/25 01:27:54;;;;;;;2.92;1.77;;;8.90;99.90;;;;;;5028183;28;20038;-66
2021/09/25 01:30:20;;;;;;;3.72;1.60;;;8.90;99.90;;;;;;5028268;28;20384;-65
2021/09/25 01:32:48;;;;;;;3.03;1.38;;;8.90;99.90;;;;;;5028197;28;20545;-66
2021/09/25 01:35:16;;;;;;;6.32;1.92;;;9.00;99.90;;;;;;5028320;28;20022;-66
2021/09/25 01:37:44;;;;;;;3.80;1.60;;;9.00;99.90;;;;;;5028004;28;20468;-66
2021/09/25 01:40:11;;;;;;;5.50;1.70;;;9.00;99.90;;;;;;5028176;28;20026;-66
2021/09/25 01:42:37;;;;;;;3.97;1.75;;;9.00;99.90;;;;;;5028186;28;20021;-66
2021/09/25 01:45:04;;;;;;;2.40;1.63;;;9.00;99.90;;;;;;5028126;28;20022;-66
2021/09/25 01:47:29;;;;;;;2.92;1.50;;;9.10;99.90;;;;;;5027919;28;20037;-66
2021/09/25 01:50:00;;;;;;;2.85;1.67;;;9.10;99.90;;;;;;5028256;28;20029;-66
2021/09/25 01:52:27;;;;;;;4.25;1.67;;;9.10;99.90;;;;;;5028056;28;20488;-66
2021/09/25 01:54:52;;;;;;;2.45;1.60;;;9.10;99.90;;;;;;5030674;28;20029;-66
2021/09/25 01:57:18;;;;;;;1.75;1.50;;;9.10;99.90;;;;;;5029957;28;20053;-66
2021/09/25 01:59:45;;;;;;;2.30;1.50;;;9.10;99.90;;;;;;5031415;28;20053;-66
2021/09/25 02:02:11;;;;;;;3.53;1.60;;;9.10;99.90;;;;;;5031614;28;20093;-66
2021/09/25 02:04:38;;;;;;;5.05;1.80;;;9.10;99.90;;;;;;5031727;28;20112;-66
2021/09/25 02:07:05;;;;;;;1.95;1.60;;;9.10;99.90;;;;;;5030992;28;20044;-66
2021/09/25 02:09:31;;;;;;;2.78;1.80;;;9.10;99.90;;;;;;5031400;28;20030;-66
2021/09/25 02:11:57;;;;;;;3.58;1.50;;;9.10;99.90;;;;;;5031608;28;20086;-66
2021/09/25 02:14:23;;;;;;;1.73;1.50;;;9.10;99.90;;;;;;5031425;28;20476;-66
2021/09/25 02:16:49;;;;;;;2.30;1.40;;;9.10;99.90;;;;;;5031499;28;20469;-66
2021/09/25 02:19:15;;;;;;;2.42;1.25;;;9.00;99.90;;;;;;5031462;28;20388;-66
2021/09/25 02:21:41;;;;;;;2.30;1.75;;;9.00;99.90;;;;;;5030915;28;20030;-65
2021/09/25 02:50:45;;;;;;;3.95;1.50;;;9.10;99.90;;;;;;5030305;28;20428;-67
2021/09/25 02:53:11;;;;;;;3.40;2.08;;;9.10;99.90;;;;;;5030718;28;20041;-67
2021/09/25 02:55:37;;;;;;;2.70;1.75;;;9.20;99.90;;;;;;5030211;28;20045;-67
2021/09/25 02:58:03;;;;;;;2.53;2.10;;;9.20;99.90;;;;;;5030824;28;20030;-67
2021/09/25 03:00:29;;;;;;;2.35;1.88;;;9.20;99.90;;;;;;5030409;28;20473;-67
2021/09/25 03:02:55;;;;;;;3.25;2.13;;;9.20;99.90;;;;;;5030420;28;20082;-67
2021/09/25 03:05:20;;;;;;;3.63;2.47;;;9.20;99.90;;;;;;5029118;28;20080;-67
2021/09/25 03:07:46;;;;;;;3.25;2.47;;;9.20;99.90;;;;;;5030386;28;20064;-67
2021/09/25 03:10:12;;;;;;;3.05;2.30;;;9.20;99.90;;;;;;5030488;28;20018;-67
2021/09/25 03:12:38;;;;;;;3.03;2.63;;;9.20;99.90;;;;;;5030096;28;20074;-67
2021/09/25 03:15:06;;;;;;;2.72;2.20;;;9.20;99.90;;;;;;5030577;28;20025;-67
2021/09/25 03:17:31;;;;;;;5.90;2.25;;;9.20;99.90;;;;;;5029962;28;20096;-67
2021/09/25 03:19:57;;;;;;;2.70;2.50;;;9.20;99.90;;;;;;5020361;28;20102;-67
2021/09/25 03:22:26;;;;;;;2.88;2.13;;;9.20;99.90;;;;;;5024843;28;20127;-67
2021/09/25 03:24:51;;;;;;;2.60;2.17;;;9.20;99.90;;;;;;5030230;28;20592;-67
2021/09/25 03:27:18;;;;;;;2.05;1.85;;;9.20;99.90;;;;;;5029922;28;20042;-67
2021/09/25 03:29:43;;;;;;;2.05;1.50;;;9.20;99.90;;;;;;5029727;28;20021;-67
2021/09/25 03:32:09;;;;;;;2.05;1.85;;;9.20;99.90;;;;;;5030077;28;20117;-67
2021/09/25 03:34:35;;;;;;;5.07;1.83;;;9.20;99.90;;;;;;5029850;28;20101;-67
2021/09/25 03:37:01;;;;;;;1.58;1.48;;;9.10;99.90;;;;;;5030137;28;20045;-67
2021/09/25 03:39:27;;;;;;;2.05;1.40;;;9.10;99.90;;;;;;5029790;28;20101;-67
2021/09/25 03:41:53;;;;;;;2.17;1.40;;;9.10;99.90;;;;;;5029734;28;20564;-67
2021/09/25 03:44:18;;;;;;;1.45;1.35;;;9.10;99.90;;;;;;5029830;28;20022;-67
2021/09/25 03:46:44;;;;;;;1.67;1.52;;;9.10;99.90;;;;;;5029405;28;20025;-67
2021/09/25 03:49:10;;;;;;;1.70;1.60;;;9.10;99.90;;;;;;5030104;28;20074;-67
2021/09/25 03:51:36;;;;;;;1.70;1.60;;;9.10;99.90;;;;;;5029800;28;20513;-68
2021/09/25 03:54:02;;;;;;;2.03;1.67;;;9.10;99.90;;;;;;5029615;28;20105;-68
2021/09/25 03:56:28;;;;;;;1.60;1.50;;;9.00;99.90;;;;;;5029265;28;20136;-68
2021/09/25 03:58:54;;;;;;;2.00;1.75;;;9.00;99.90;;;;;;5029544;28;20026;-68
2021/09/25 04:01:19;;;;;;;2.35;1.77;;;9.00;99.90;;;;;;5029583;28;20026;-68
2021/09/25 04:03:45;;;;;;;2.08;1.60;;;9.00;99.90;;;;;;5029680;28;20029;-68
2021/09/25 04:06:11;;;;;;;1.60;1.50;;;8.90;99.90;;;;;;5029352;28;20389;-68
2021/09/25 04:08:37;;;;;;;3.72;1.60;;;8.90;99.90;;;;;;5029708;28;20033;-67
2021/09/25 04:11:03;;;;;;;1.80;1.70;;;8.90;99.90;;;;;;5029242;28;20053;-67
2021/09/25 04:13:29;;;;;;;1.92;1.77;;;8.90;99.90;;;;;;5029318;28;20130;-67
2021/09/25 04:15:54;;;;;;;1.50;1.40;;;8.90;99.90;;;;;;5029040;28;20100;-68
2021/09/25 04:18:20;;;;;;;1.77;1.65;;;8.90;99.90;;;;;;5029678;28;20026;-67
2021/09/25 04:20:46;;;;;;;1.60;1.50;;;8.90;99.90;;;;;;5029114;28;20394;-67
2021/09/25 04:23:12;;;;;;;5.05;1.60;;;8.90;99.90;;;;;;5029378;28;20021;-67
2021/09/25 04:25:38;;;;;;;1.80;1.70;;;8.80;99.90;;;;;;5029169;28;20040;-67
2021/09/25 04:28:06;;;;;;;1.73;1.60;;;8.80;99.90;;;;;;5029232;28;20528;-67
2021/09/25 04:30:33;;;;;;;2.00;1.80;;;8.80;99.90;;;;;;5029342;28;20117;-67
2021/09/25 04:32:59;;;;;;;16.83;1.90;;;8.90;99.90;;;;;;5029033;28;20025;-65
2021/09/25 04:35:25;;;;;;;17.42;2.30;;;8.90;99.90;;;;;;5029112;28;20021;-66
2021/09/25 04:37:50;;;;;;;0.90;0.82;;;8.90;99.90;;;;;;5028999;28;20040;-67
2021/09/25 04:40:16;;;;;;;23.35;2.08;;;9.40;99.90;;;;;;5028994;28;20033;-65
2021/09/25 04:42:42;;;;;;;17.02;1.70;;;10.80;99.90;;;;;;5028820;28;20025;-65
2021/09/25 04:45:12;;;;;;;4.13;1.30;;;10.70;99.90;;;;;;5028769;28;20358;-65
2021/09/25 04:47:45;;;;;;;11.85;1.60;;;10.30;99.90;;;;;;5028409;28;20565;-66
2021/09/25 04:50:13;;;;;;;31.17;1.80;;;9.90;99.90;;;;;;5028277;28;20044;-66
2021/09/25 04:52:39;;;;;;;7.10;1.25;;;9.60;99.90;;;;;;5021241;28;20025;-65
2021/09/25 04:55:05;;;;;;;8.30;1.50;;;9.50;99.90;;;;;;5025764;28;20508;-66
2021/09/25 04:57:32;;;;;;;21.52;1.60;;;9.50;99.90;;;;;;5024848;28;20033;-65
2021/09/25 04:59:57;;;;;;;21.58;1.70;;;9.50;99.90;;;;;;5021664;28;20026;-66
2021/09/25 05:02:23;;;;;;;24.30;1.58;;;9.50;99.90;;;;;;5026596;28;20033;-66
2021/09/25 05:04:49;;;;;;;11.95;1.17;;;9.40;99.90;;;;;;5020559;28;20029;-67
2021/09/25 05:07:15;;;;;;;1.38;1.27;;;9.30;99.90;;;;;;5027670;28;20485;-67
2021/09/25 05:09:41;;;;;;;1.30;1.20;;;9.30;99.90;;;;;;5024727;28;20028;-67
2021/09/25 05:12:07;;;;;;;3.65;0.85;;;9.20;99.90;;;;;;5027995;28;20029;-65
2021/09/25 05:14:34;;;;;;;1.95;0.90;;;9.10;99.90;;;;;;5023392;28;20083;-65
2021/09/25 05:17:00;;;;;;;1.67;0.98;;;9.10;99.90;;;;;;5025363;28;20030;-65
2021/09/25 05:19:26;;;;;;;0.90;0.90;;;9.00;99.90;;;;;;5023731;28;20464;-65
2021/09/25 05:21:51;;;;;;;4.28;1.00;;;9.00;99.90;;;;;;5027842;28;20025;-65
2021/09/25 05:24:19;;;;;;;1.08;0.80;;;8.90;99.90;;;;;;5028092;28;20112;-65
2021/09/25 05:26:49;;;;;;;0.88;0.70;;;8.90;99.90;;;;;;5027547;28;20022;-65
2021/09/25 05:29:16;;;;;;;1.53;1.43;;;9.20;99.90;;;;;;5029971;28;20064;-65
2021/09/25 05:31:45;;;;;;;0.90;0.90;;;9.30;99.90;;;;;;5031673;28;20256;-65
2021/09/25 05:34:11;;;;;;;3.42;0.90;;;9.10;99.90;;;;;;5031904;28;20029;-65
2021/09/25 05:36:37;;;;;;;1.88;0.95;;;9.00;99.90;;;;;;5031538;28;20030;-66
2021/09/25 05:39:04;;;;;;;1.45;1.30;;;9.00;99.90;;;;;;5030744;28;20036;-64
2021/09/25 05:41:31;;;;;;;1.05;0.95;;;9.00;99.90;;;;;;5031405;28;20037;-64
2021/09/25 05:43:57;;;;;;;1.05;1.02;;;8.90;99.90;;;;;;5031836;28;20358;-65
2021/09/25 05:46:23;;;;;;;5.45;1.10;;;8.80;99.90;;;;;;5031627;28;20051;-65
2021/09/25 05:48:51;;;;;;;1.38;1.27;;;8.80;99.90;;;;;;5031460;28;20030;-64
2021/09/25 05:51:18;;;;;;;1.20;1.10;;;8.80;99.90;;;;;;5031605;28;20025;-64
2021/09/25 05:53:44;;;;;;;1.30;0.95;;;8.70;99.90;;;;;;5031422;28;20017;-65
2021/09/25 05:56:10;;;;;;;2.70;1.00;;;8.70;99.90;;;;;;5031505;28;20401;-64
2021/09/25 05:58:35;;;;;;;1.10;1.00;;;8.70;99.90;;;;;;5030965;28;20029;-64
2021/09/25 06:01:01;;;;;;;1.20;1.10;;;8.80;99.90;;;;;;5031402;28;20078;-64
2021/09/25 06:03:27;;;;;;;1.45;1.00;;;8.80;99.90;;;;;;5031311;28;20101;-64
2021/09/25 06:05:52;;;;;;;2.53;1.15;;;8.80;99.90;;;;;;5031433;28;20018;-66
2021/09/25 06:08:18;;;;;;;3.08;1.30;;;8.70;99.90;;;;;;5031372;28;20069;-66
2021/09/25 06:10:44;;;;;;;2.28;0.95;;;8.70;99.90;;;;;;5031759;28;20473;-65
2021/09/25 06:13:10;;;;;;;7.10;1.10;;;8.60;99.90;;;;;;5030148;28;20033;-66
2021/09/25 06:15:37;;;;;;;5.80;1.35;;;8.60;99.90;;;;;;5031947;28;20366;-66
2021/09/25 06:18:03;;;;;;;0.90;0.90;;;8.60;99.90;;;;;;5031648;28;20388;-66
2021/09/25 06:20:30;;;;;;;5.72;1.02;;;8.50;99.90;;;;;;5031535;28;20436;-67
2021/09/25 06:22:56;;;;;;;2.45;1.70;;;8.50;99.90;;;;;;5087863;27;20477;-66
2021/09/25 06:25:21;;;;;;;12.88;1.25;;;8.50;99.90;;;;;;5135977;27;20031;-65
2021/09/25 06:27:47;;;;;;;12.45;1.20;;;8.60;99.90;;;;;;5034027;27;20059;-68
2021/09/25 06:30:13;;;;;;;5.88;1.02;;;8.50;99.90;;;;;;5031102;28;20078;-68
2021/09/25 06:32:39;;;;;;;12.63;1.50;;;8.60;99.90;;;;;;5030933;28;20029;-66
2021/09/25 06:35:06;;;;;;;31.92;1.60;;;8.70;99.90;;;;;;5030679;28;20491;-65
2021/09/25 06:37:32;;;;;;;6.13;1.13;;;8.70;99.90;;;;;;5028080;28;20862;-65
2021/09/25 06:39:58;;;;;;;5.75;1.25;;;8.70;99.90;;;;;;5032131;28;20392;-65
2021/09/25 06:42:24;;;;;;;7.85;1.20;;;8.70;99.90;;;;;;5030752;28;20025;-65
2021/09/25 06:44:50;;;;;;;9.88;1.73;;;8.70;99.90;;;;;;5025297;28;20033;-66
2021/09/25 06:47:16;;;;;;;1.80;1.20;;;8.60;99.90;;;;;;5030997;28;20046;-68
2021/09/25 06:49:41;;;;;;;3.25;1.23;;;8.60;99.90;;;;;;5030527;28;20025;-68
2021/09/25 06:52:07;;;;;;;6.28;1.20;;;8.90;99.90;;;;;;5031015;28;20108;-67
2021/09/25 06:54:34;;;;;;;1.85;1.10;;;9.20;99.90;;;;;;5031827;28;20109;-69
2021/09/25 06:57:01;;;;;;;8.85;1.38;;;9.20;99.90;;;;;;5030990;28;20045;-69
2021/09/25 06:59:27;;;;;;;1.00;0.90;;;9.40;99.90;;;;;;5031156;28;20018;-71
2021/09/25 07:01:53;;;;;;;1.10;1.00;;;9.70;99.90;;;;;;5025710;28;20048;-70
2021/09/25 07:04:19;;;;;;;2.70;1.10;;;10.10;99.90;;;;;;5027838;28;20021;-71
2021/09/25 07:06:48;;;;;;;6.00;1.50;;;11.10;99.90;;;;;;5031788;28;20428;-70
2021/09/25 07:09:13;;;;;;;2.78;1.02;;;11.70;99.90;;;;;;5031983;28;20032;-70
2021/09/25 07:11:39;;;;;;;6.65;1.38;;;11.80;99.90;;;;;;5030814;28;20033;-69
2021/09/25 07:14:06;;;;;;;1.08;0.98;;;12.20;99.90;;;;;;5031210;28;20082;-68
2021/09/25 07:16:35;;;;;;;1.33;1.08;;;12.40;99.90;;;;;;5029467;28;20047;-67
2021/09/25 07:19:04;;;;;;;2.80;0.90;;;11.90;99.90;;;;;;5031575;28;20029;-67
2021/09/25 07:21:30;;;;;;;1.15;1.00;;;11.20;99.90;;;;;;5030981;28;20049;-68
2021/09/25 07:23:56;;;;;;;1.00;1.00;;;10.60;99.90;;;;;;5030816;28;20022;-67
2021/09/25 07:26:22;;;;;;;1.70;1.00;;;10.30;99.90;;;;;;5031337;28;20491;-67
2021/09/25 07:28:47;;;;;;;1.77;0.93;;;10.00;99.90;;;;;;5030827;28;20538;-67
2021/09/25 07:31:13;;;;;;;1.45;0.82;;;9.80;99.90;;;;;;5030611;28;20113;-67
2021/09/25 07:33:39;;;;;;;0.85;0.85;;;9.70;99.90;;;;;;5030150;28;20022;-68
2021/09/25 07:36:07;;;;;;;1.42;0.80;;;9.60;99.90;;;;;;5030235;28;20044;-67
2021/09/25 07:38:33;;;;;;;0.70;0.70;;;9.60;99.90;;;;;;5029643;28;20457;-67
2021/09/25 07:40:59;;;;;;;0.90;0.90;;;9.50;99.90;;;;;;5030862;28;20060;-67
2021/09/25 07:43:24;;;;;;;2.25;0.80;;;9.50;99.90;;;;;;5030271;28;20516;-66
2021/09/25 07:45:51;;;;;;;0.80;0.80;;;9.40;99.90;;;;;;5030085;28;20033;-67
2021/09/25 07:48:17;;;;;;;2.72;0.88;;;9.40;99.90;;;;;;5029707;28;20046;-67
2021/09/25 07:50:43;;;;;;;4.28;1.10;;;9.30;99.90;;;;;;5029696;28;20026;-67
2021/09/25 07:53:09;;;;;;;1.85;1.33;;;9.30;99.90;;;;;;5029968;28;20021;-67
2021/09/25 07:55:36;;;;;;;1.15;1.05;;;9.30;99.90;;;;;;5030424;28;20398;-68
2021/09/25 07:58:02;;;;;;;4.93;2.15;;;9.30;99.90;;;;;;5029678;28;20350;-68
2021/09/25 08:00:28;;;;;;;1.15;0.93;;;9.40;99.90;;;;;;5030009;28;20028;-68
2021/09/25 08:02:53;;;;;;;0.90;0.90;;;9.40;99.90;;;;;;5029936;28;20070;-68
2021/09/25 08:05:20;;;;;;;0.80;0.80;;;9.30;99.90;;;;;;5024794;28;20040;-67
2021/09/25 08:07:46;;;;;;;4.10;0.88;;;9.30;99.90;;;;;;5028941;28;20048;-67
2021/09/25 08:10:13;;;;;;;0.85;0.85;;;9.30;99.90;;;;;;5029610;28;20029;-67
2021/09/25 08:12:40;;;;;;;0.95;0.80;;;9.20;99.90;;;;;;5029211;28;20028;-67
2021/09/25 08:15:08;;;;;;;1.15;0.90;;;9.20;99.90;;;;;;5029590;28;20079;-67
2021/09/25 08:17:34;;;;;;;1.20;1.10;;;9.30;99.90;;;;;;5028885;28;20393;-67
2021/09/25 08:20:00;;;;;;;2.08;1.02;;;9.30;99.90;;;;;;5029014;28;20173;-67
2021/09/25 08:22:26;;;;;;;0.90;0.90;;;9.30;99.90;;;;;;5029061;28;20046;-69
2021/09/25 08:24:51;;;;;;;1.73;0.90;;;9.40;99.90;;;;;;5029588;28;20456;-68
2021/09/25 08:27:17;;;;;;;0.98;0.90;;;9.60;99.90;;;;;;5027819;28;20030;-68
2021/09/25 08:29:43;;;;;;;1.02;0.80;;;9.90;99.90;;;;;;5028828;28;20064;-68
2021/09/25 08:32:09;;;;;;;0.90;0.90;;;10.20;99.90;;;;;;5029329;28;20041;-68
2021/09/25 08:34:35;;;;;;;0.80;0.80;;;10.40;99.90;;;;;;5029743;28;20104;-68
2021/09/25 08:37:03;;;;;;;1.60;0.70;;;10.50;99.90;;;;;;5029106;28;20029;-69
2021/09/25 08:39:28;;;;;;;1.88;0.80;;;10.60;99.90;;;;;;5028947;28;20469;-69
2021/09/25 08:41:54;;;;;;;0.80;0.80;;;10.70;99.90;;;;;;5028856;28;20051;-69
2021/09/25 08:44:21;;;;;;;2.50;0.95;;;10.80;99.90;;;;;;5029052;28;20036;-69
2021/09/25 08:46:47;;;;;;;1.85;0.80;;;10.90;99.90;;;;;;5028881;28;20052;-69
2021/09/25 08:49:13;;;;;;;0.90;0.80;;;11.00;99.90;;;;;;5028369;28;20030;-69
2021/09/25 08:51:39;;;;;;;1.50;1.10;;;11.00;99.90;;;;;;5028938;28;20033;-68
2021/09/25 08:54:06;;;;;;;1.92;0.77;;;11.10;99.90;;;;;;5028754;28;20354;-69
2021/09/25 08:56:32;;;;;;;1.15;0.88;;;11.20;99.90;;;;;;5028957;28;20045;-69
2021/09/25 08:58:58;;;;;;;0.85;0.70;;;11.30;99.90;;;;;;5028685;28;20031;-69
2021/09/25 09:01:28;;;;;;;1.17;0.80;;;11.20;99.90;;;;;;5029028;28;20029;-69
2021/09/25 09:03:55;;;;;;;2.30;0.77;;;11.20;99.90;;;;;;5028726;28;20022;-68
2021/09/25 09:06:27;;;;;;;3.50;0.77;;;11.20;99.90;;;;;;5029184;28;20029;-69
2021/09/25 09:08:54;;;;;;;0.63;0.63;;;11.30;99.90;;;;;;5027329;28;20057;-69
2021/09/25 09:11:22;;;;;;;1.15;0.63;;;11.40;99.90;;;;;;5029077;28;20032;-66
2021/09/25 09:13:52;;;;;;;1.85;0.60;;;11.40;99.90;;;;;;5029027;28;20025;-66
2021/09/25 09:16:19;;;;;;;1.58;0.75;;;11.50;99.90;;;;;;5029158;28;20021;-66
2021/09/25 09:18:47;;;;;;;0.70;0.70;;;11.40;99.90;;;;;;5029221;28;20029;-67
2021/09/25 09:21:17;;;;;;;1.48;0.70;;;11.30;99.90;;;;;;5029089;28;20025;-67
2021/09/25 09:23:52;;;;;;;1.23;0.70;;;11.20;99.90;;;;;;5028881;28;20488;-66
2021/09/25 09:26:20;;;;;;;1.23;0.70;;;11.20;99.90;;;;;;5028976;28;20388;-65
2021/09/25 09:28:48;;;;;;;2.60;0.80;;;11.20;99.90;;;;;;5028057;28;20037;-65
2021/09/25 09:31:14;;;;;;;1.95;0.60;;;11.20;99.90;;;;;;5026191;28;20021;-65
2021/09/25 09:33:45;;;;;;;1.38;0.60;;;11.20;99.90;;;;;;5028259;28;20040;-65
2021/09/25 09:36:39;;;;;;;2.25;0.57;;;11.20;99.90;;;;;;5028738;28;20549;-65
2021/09/25 09:39:21;;;;;;;0.50;0.50;;;11.20;99.90;;;;;;5028484;28;20030;-65
2021/09/25 09:41:48;;;;;;;0.88;0.50;;;11.10;99.90;;;;;;5028763;28;20029;-65
2021/09/25 09:44:19;;;;;;;0.80;0.63;;;11.10;99.90;;;;;;5029073;28;20060;-65
2021/09/25 09:46:51;;;;;;;0.55;0.52;;;11.10;99.90;;;;;;5028602;28;20099;-65
2021/09/25 09:49:31;;;;;;;1.30;0.60;;;11.00;99.90;;;;;;5028779;28;20083;-65
2021/09/25 09:52:17;;;;;;;1.02;0.60;;;11.00;99.90;;;;;;5028919;28;20411;-65
2021/09/25 09:54:46;;;;;;;0.70;0.55;;;11.00;99.90;;;;;;5028673;28;20108;-65
2021/09/25 09:57:16;;;;;;;1.05;0.57;;;11.00;99.90;;;;;;5028517;28;20092;-65
2021/09/25 09:59:42;;;;;;;0.80;0.52;;;11.00;99.90;;;;;;5028612;28;20025;-65
2021/09/25 10:02:08;;;;;;;0.75;0.57;;;10.90;99.90;;;;;;5027402;28;20040;-65
2021/09/25 10:04:34;;;;;;;1.27;0.98;;;10.90;99.90;;;;;;5029045;28;20029;-65
2021/09/25 10:07:01;;;;;;;0.40;0.40;;;10.90;99.90;;;;;;5027233;28;20044;-65
2021/09/25 10:09:29;;;;;;;2.90;0.70;;;11.00;99.90;;;;;;5028950;28;20029;-65
2021/09/25 10:11:59;;;;;;;0.65;0.50;;;11.00;99.90;;;;;;5028251;28;20057;-65
2021/09/25 10:14:30;;;;;;;3.03;0.50;;;11.00;99.90;;;;;;5029323;28;20022;-65
2021/09/25 10:16:59;;;;;;;1.48;0.60;;;11.00;99.90;;;;;;5031840;28;20021;-65
2021/09/25 10:19:30;;;;;;;1.83;0.60;;;11.00;99.90;;;;;;5032100;28;20044;-65
2021/09/25 10:22:01;;;;;;;0.40;0.40;;;11.00;99.90;;;;;;5031925;28;20100;-65
2021/09/25 10:24:32;;;;;;;;;;;11.00;99.90;;;;;;5032270;28;20030;-65
2021/09/25 10:27:01;;;;;;;1.30;0.70;;;11.00;99.90;;;;;;5031560;28;19913;-65
2021/09/25 10:29:27;;;;;;;0.43;0.43;;;11.10;99.90;;;;;;5031883;28;20025;-65
2021/09/25 10:32:17;;;;;;;0.43;0.43;;;11.20;99.90;;;;;;5031560;28;20053;-65
2021/09/25 10:35:13;;;;;;;0.70;0.50;;;11.20;99.90;;;;;;5031481;28;20150;-65
2021/09/25 10:37:42;;;;;;;1.67;0.43;;;11.30;99.90;;;;;;5030000;28;20027;-65
2021/09/25 10:40:20;;;;;;;0.40;0.40;;;11.40;99.90;;;;;;5031474;28;20401;-65
2021/09/25 10:43:00;;;;;;;0.50;0.50;;;11.40;99.90;;;;;;5031335;28;20488;-65
2021/09/25 10:45:35;;;;;;;0.40;0.40;;;11.50;99.90;;;;;;5031538;28;20025;-66
2021/09/25 10:48:05;;;;;;;1.60;0.55;;;11.50;99.90;;;;;;5031137;28;20038;-67
2021/09/25 10:50:31;;;;;;;;;;;11.50;99.90;;;;;;5032168;28;20032;-67
2021/09/25 10:53:16;;;;;;;0.60;0.60;;;11.50;99.90;;;;;;5031482;28;19988;-66
2021/09/25 10:55:45;;;;;;;0.63;0.40;;;11.60;99.90;;;;;;5031010;28;20546;-66
2021/09/25 10:58:12;;;;;;;0.60;0.60;;;11.60;99.90;;;;;;5031146;28;20063;-69
2021/09/25 11:01:04;;;;;;;0.40;0.40;;;11.60;99.90;;;;;;5031507;28;20377;-69
2021/09/25 11:06:20;;;;;;;1.77;0.50;;;11.60;99.90;;;;;;5031366;28;20064;-68
2021/09/25 11:09:01;;;;;;;0.40;0.40;;;11.60;99.90;;;;;;5030692;28;20029;-68
2021/09/25 11:11:51;;;;;;;1.50;0.47;;;11.60;99.90;;;;;;5031094;28;20030;-68
2021/09/25 11:14:21;;;;;;;1.02;0.70;;;11.60;99.90;;;;;;5049004;28;20044;-68
2021/09/25 11:17:10;;;;;;;0.40;0.40;;;11.60;99.90;;;;;;5030737;28;20021;-68
2021/09/25 11:19:43;;;;;;;1.95;0.50;;;11.60;99.90;;;;;;5030750;28;20018;-68
2021/09/25 11:22:20;;;;;;;1.85;0.63;;;11.70;99.90;;;;;;5030796;28;20025;-68
2021/09/25 11:24:52;;;;;;;0.50;0.50;;;11.70;99.90;;;;;;5030719;28;20018;-68
2021/09/25 11:27:23;;;;;;;1.05;0.60;;;11.80;99.90;;;;;;5029540;28;20026;-68
2021/09/25 11:29:49;;;;;;;0.63;0.57;;;11.70;99.90;;;;;;5030674;28;20060;-68
2021/09/25 11:32:15;;;;;;;1.00;0.60;;;11.70;99.90;;;;;;5030636;28;20025;-68
2021/09/25 11:34:41;;;;;;;0.70;0.40;;;11.70;99.90;;;;;;5029369;28;20029;-68
2021/09/25 11:37:07;;;;;;;2.05;0.70;;;11.60;99.90;;;;;;5030681;28;20036;-68
2021/09/25 11:39:45;;;;;;;0.52;0.40;;;11.60;99.90;;;;;;5030748;28;20030;-69
2021/09/25 11:42:15;;;;;;;0.50;0.50;;;11.60;99.90;;;;;;5030801;28;20029;-69
2021/09/25 11:45:02;;;;;;;6.95;0.70;;;11.60;99.90;;;;;;5030383;28;20025;-68
2021/09/25 11:47:49;;;;;;;0.57;0.50;;;11.60;99.90;;;;;;5030296;28;20022;-68
2021/09/25 11:50:27;;;;;;;1.05;0.60;;;11.70;99.90;;;;;;5030710;28;20040;-68
2021/09/25 11:53:03;;;;;;;0.63;0.40;;;11.70;99.90;;;;;;5030194;28;20481;-68
2021/09/25 11:55:31;;;;;;;0.63;0.43;;;11.60;99.90;;;;;;5030038;28;20030;-68
2021/09/25 11:58:04;;;;;;;1.63;0.63;;;11.60;99.90;;;;;;5030041;28;20060;-68
2021/09/25 12:00:35;;;;;;;0.63;0.60;;;11.60;99.90;;;;;;5030581;28;20393;-68
2021/09/25 12:03:04;;;;;;;1.08;0.40;;;11.60;99.90;;;;;;5029968;28;20511;-68
2021/09/25 12:05:39;;;;;;;2.58;0.47;;;11.70;99.90;;;;;;5030072;28;20428;-68
2021/09/25 12:08:05;;;;;;;0.50;0.50;;;11.70;99.90;;;;;;5024617;28;20026;-68
2021/09/25 12:10:52;;;;;;;0.98;0.57;;;11.70;99.90;;;;;;5009369;28;20075;-68
2021/09/25 12:13:24;;;;;;;64.95;4.65;;;11.70;99.90;;;;;;5010283;28;20022;-68
2021/09/25 12:15:53;;;;;;;0.50;0.50;;;11.70;99.90;;;;;;5010029;28;20037;-81
2021/09/25 12:18:30;;;;;;;3.35;0.57;;;11.90;99.90;;;;;;5010177;28;20507;-69
2021/09/25 12:20:59;;;;;;;1.02;0.32;;;12.30;99.90;;;;;;5010326;28;20110;-70
2021/09/25 12:23:32;;;;;;;0.47;0.43;;;12.30;99.90;;;;;;5010191;28;20035;-70
2021/09/25 12:25:59;;;;;;;1.05;0.43;;;12.20;99.90;;;;;;5010070;28;20428;-68
2021/09/25 12:28:30;;;;;;;1.95;0.40;;;12.60;99.90;;;;;;5010298;28;20034;-68
2021/09/25 12:31:06;;;;;;;1.10;0.63;;;12.50;99.90;;;;;;5010360;28;20400;-68
2021/09/25 12:33:33;;;;;;;0.68;0.40;;;12.30;99.90;;;;;;5010094;28;20569;-68
2021/09/25 12:36:03;;;;;;;0.88;0.40;;;12.10;99.90;;;;;;5009977;28;20112;-68
2021/09/25 12:38:46;;;;;;;0.95;0.35;;;12.00;99.90;;;;;;5009694;28;20555;-68
2021/09/25 12:41:16;;;;;;;0.30;0.30;;;11.90;99.90;;;;;;5010099;28;20423;-69
2021/09/25 12:43:44;;;;;;;2.35;0.50;;;11.90;99.90;;;;;;5009836;28;20079;-74
2021/09/25 12:46:19;;;;;;;3.05;0.43;;;12.10;99.90;;;;;;5010040;28;20034;-68
2021/09/25 12:49:00;;;;;;;1.95;0.40;;;12.90;99.90;;;;;;5009768;28;20046;-67
2021/09/25 12:51:29;;;;;;;;;;;13.00;99.90;;;;;;5010558;28;20029;-68
2021/09/25 12:53:55;;;;;;;0.70;0.40;;;12.80;99.90;;;;;;5009712;28;19957;-68
2021/09/25 12:56:21;;;;;;;0.82;0.50;;;12.60;99.90;;;;;;5009629;28;20091;-68
2021/09/25 12:58:51;;;;;;;1.73;0.40;;;12.40;99.90;;;;;;5009855;28;20030;-67
2021/09/25 13:01:27;;;;;;;1.08;0.40;;;12.40;99.90;;;;;;5012860;28;20017;-68
2021/09/25 13:03:53;;;;;;;0.30;0.30;;;12.30;99.90;;;;;;5029093;28;20044;-69
2021/09/25 13:06:23;;;;;;;0.77;0.30;;;12.30;99.90;;;;;;5029223;28;20108;-68
2021/09/25 13:09:17;;;;;;;0.40;0.40;;;12.30;99.90;;;;;;5029345;28;20082;-68
2021/09/25 13:12:13;;;;;;;0.20;0.20;;;12.20;99.90;;;;;;5028824;28;20025;-68
2021/09/25 13:14:39;;;;;;;2.22;0.40;;;12.20;99.90;;;;;;5026907;28;20021;-68
2021/09/25 13:17:06;;;;;;;0.38;0.30;;;12.10;99.90;;;;;;5028979;28;20045;-69
2021/09/25 13:19:32;;;;;;;1.23;0.40;;;12.10;99.90;;;;;;5029374;28;20025;-68
2021/09/25 13:22:00;;;;;;;3.40;0.50;;;12.10;99.90;;;;;;5028391;28;20034;-68
2021/09/25 13:24:26;;;;;;;1.10;0.35;;;12.10;99.90;;;;;;5028670;28;20057;-68
2021/09/25 13:26:51;;;;;;;0.57;0.40;;;12.00;99.90;;;;;;5028444;28;20037;-68